Latest Coastal Weather Observations for Bundaberg

IDQ60701

Issued at 4:21 am EST Saturday 13 February 2016 (issued every 10 minutes, with the page automatically refreshed every 10 minutes)

About coastal observations | Map of coastal stations | Coastal observations for QLD | Marine services | Other Formats
Station Details ID: 039128 Name: BUNDABERG AERO Lat: -24.91 Lon: 152.32 Height: 30.82 m
Data from the previous 72 hours. | See also: Recent months at Bundaberg
Date/Time
EST
Temp

°C
Wind Pressure Rain
since 9am
mm
Weather Cloud Vis
km
Sea
Height
m
Swell
Dir
 
Speed
knots
Gust
knots
hPa Trend Height
m
Period
s
Dir
13/04:00am 21.7 S 7 12 1007.8 - 0.0 - - 10 - - - -
13/03:45am 21.6 S 7 10 1008.0 - 0.0 - - 10 - - - -
13/03:35am 21.6 SSE 7 10 1008.0 - 0.0 - - 5 - - - -
13/03:30am 21.7 SSE 7 10 1007.9 - 0.0 - - 8 - - - -
13/03:00am 21.6 S 6 11 1008.1 - 0.0 - Mostly clear 10 - - - -
13/02:30am 21.5 S 7 11 1008.1 - 0.0 - - 10 - - - -
13/02:00am 21.5 S 7 9 1008.3 - 0.0 - - 10 - - - -
13/01:30am 21.7 S 6 8 1008.8 - 0.0 - - 10 - - - -
13/01:00am 22.0 S 7 9 1008.9 - 0.0 - - 10 - - - -
13/12:30am 22.4 S 8 11 1009.4 - 0.0 - - 10 - - - -
13/12:00am 22.5 S 7 12 1009.6 - 0.0 - - 10 - - - -
 
Date/Time
EST
Temp

°C
Wind Pressure Rain
since 9am
mm
Weather Cloud Vis
km
Sea
Height
m
Swell
Dir
 
Speed
knots
Gust
knots
hPa Trend Height
m
Period
s
Dir
12/11:30pm 22.2 S 7 11 1010.0 - 0.0 - - 10 - - - -
12/11:00pm 22.3 SSE 6 9 1010.4 - 0.0 - - 10 - - - -
12/10:30pm 22.5 SSE 7 10 1010.8 - 0.0 - - 10 - - - -
12/10:00pm 22.7 SSE 7 10 1010.9 - 0.0 - - 10 - - - -
12/09:30pm 23.0 SSE 7 11 1011.1 - 0.0 - - 10 - - - -
12/09:00pm 23.3 SSE 8 10 1011.0 - 0.0 - Mostly clear 10 - - - -
12/08:30pm 23.3 SSE 7 11 1011.1 - 0.0 - - 10 - - - -
12/08:00pm 23.6 SE 9 12 1011.0 - 0.0 - - 10 - - - -
12/07:30pm 24.7 SSE 10 13 1010.7 - 0.0 - - 10 - - - -
12/07:00pm 24.9 SE 12 16 1010.5 - 0.0 - - 10 - - - -
12/06:30pm 25.6 SE 12 16 1010.2 - 0.0 - - 10 - - - -
12/06:00pm 26.6 SE 18 23 1009.9 - 0.0 - - 10 - - - -
12/05:30pm 27.4 SE 18 24 1009.5 - 0.0 - - 10 - - - -
12/05:00pm 27.6 SE 19 24 1009.2 - 0.0 - Partly cloudy 10 - - - -
12/04:30pm 27.3 SE 20 27 1009.1 - 0.0 - Partly cloudy 10 - - - -
12/04:00pm 28.1 SE 18 26 1008.8 - 0.0 - Partly cloudy 10 - - - -
12/03:30pm 28.8 ESE 17 23 1008.7 - 0.0 - Partly cloudy 10 - - - -
12/03:00pm 30.0 SE 16 24 1008.8 - 0.0 - Mostly clear 10 - - - -
12/02:30pm 30.1 SE 18 24 1008.9 - 0.0 - Partly cloudy 10 - - - -
12/02:00pm 30.3 ESE 17 23 1009.0 - 0.0 - Partly cloudy 10 - - - -
12/01:30pm 29.7 SE 18 23 1009.3 - 0.0 - Partly cloudy 10 - - - -
12/01:00pm 29.8 SE 18 23 1009.4 - 0.0 - - 10 - - - -
12/12:30pm 29.8 ESE 16 22 1009.7 - 0.0 - Partly cloudy 10 - - - -
12/12:00pm 29.2 ESE 17 23 1009.8 - 0.0 - Partly cloudy 10 - - - -
12/11:30am 29.2 SE 15 21 1010.1 - 0.0 - - 10 - - - -
12/11:00am 29.3 SE 17 23 1010.3 - 0.0 - Partly cloudy 10 - - - -
12/10:30am 27.5 SSE 14 17 1010.7 - 0.0 - Partly cloudy 10 - - - -
12/10:00am 28.8 SE 15 21 1011.0 - 0.0 - Partly cloudy 10 - - - -
12/09:30am 27.6 SE 14 20 1011.2 - 0.0 - Partly cloudy 10 - - - -
12/09:00am 26.5 SE 15 22 1011.3 - 0.6 - Mostly clear 10 - - - -
12/08:30am 26.3 SSE 14 21 1011.4 - 0.6 - Partly cloudy 10 - - - -
12/08:00am 25.4 SSE 11 16 1011.3 - 0.6 - - 10 - - - -
12/07:30am 24.0 S 10 17 1011.4 - 0.6 - - 10 - - - -
12/07:00am 22.7 S 9 15 1011.3 - 0.6 - - 10 - - - -
12/06:30am 21.6 S 8 12 1011.0 - 0.6 - - 10 - - - -
12/06:00am 20.8 S 8 12 1010.7 - 0.6 - - 10 - - - -
12/05:30am 20.7 S 7 11 1010.4 - 0.6 - - 10 - - - -
12/05:00am 20.8 S 7 11 1010.3 - 0.6 - - 10 - - - -
12/04:30am 20.8 S 7 11 1010.1 - 0.6 - - 10 - - - -
12/04:00am 20.8 S 7 10 1010.1 - 0.6 - - 10 - - - -
12/03:30am 20.9 S 7 9 1010.2 - 0.6 - - 10 - - - -
12/03:00am 21.1 S 7 10 1010.2 - 0.6 - - 10 - - - -
12/02:30am 21.2 SSW 7 9 1010.5 - 0.6 - - 10 - - - -
12/02:00am 21.3 S 7 9 1010.5 - 0.6 - - 10 - - - -
12/01:30am 21.4 S 6 8 1010.5 - 0.6 - - 10 - - - -
12/01:00am 21.6 S 6 9 1010.8 - 0.6 - - 10 - - - -
12/12:30am 21.7 S 6 8 1011.0 - 0.6 - - 10 - - - -
12/12:00am 22.0 S 6 9 1011.1 - 0.6 - - 10 - - - -
 
Date/Time
EST
Temp

°C
Wind Pressure Rain
since 9am
mm
Weather Cloud Vis
km
Sea
Height
m
Swell
Dir
 
Speed
knots
Gust
knots
hPa Trend Height
m
Period
s
Dir
11/11:30pm 22.0 S 6 9 1011.1 - 0.6 - - 10 - - - -
11/11:00pm 22.3 S 5 8 1011.2 - 0.6 - - 10 - - - -
11/10:30pm 22.5 S 6 9 1011.3 - 0.6 - - 10 - - - -
11/10:00pm 22.8 SSE 7 10 1011.4 - 0.6 - - 10 - - - -
11/09:30pm 22.9 SSE 7 10 1011.4 - 0.6 - - 10 - - - -
11/09:00pm 23.2 SSE 8 10 1011.5 - 0.6 - - 10 - - - -
11/08:30pm 23.4 SSE 7 10 1011.5 - 0.6 - - 10 - - - -
11/08:00pm 23.7 SSE 9 12 1011.3 - 0.6 - - 10 - - - -
11/07:30pm 24.3 SE 13 17 1011.1 - 0.6 - - 10 - - - -
11/07:00pm 24.5 SE 13 17 1010.7 - 0.6 - - 10 - - - -
11/06:30pm 25.0 SE 13 17 1010.3 - 0.6 - - 10 - - - -
11/06:00pm 26.1 SE 11 15 1010.0 - 0.6 - Partly cloudy 10 - - - -
11/05:30pm 26.2 SE 12 17 1009.7 - 0.6 - - 10 - - - -
11/05:00pm 25.7 SE 15 20 1009.5 - 0.6 - Partly cloudy 10 - - - -
11/04:30pm 26.5 ESE 14 19 1009.2 - 0.4 - Partly cloudy 10 - - - -
11/04:00pm 27.3 ESE 15 20 1008.9 - 0.4 - Partly cloudy 10 - - - -
11/03:30pm 27.0 ESE 13 17 1009.0 - 0.4 - Partly cloudy 10 - - - -
11/03:00pm 26.2 SE 12 15 1009.1 - 0.4 Rain Cloudy 10 - - - -
11/02:30pm 29.1 ESE 15 19 1009.1 - 0.0 - Partly cloudy 10 - - - -
11/02:00pm 27.8 SSE 12 20 1009.3 - 0.0 - Partly cloudy 10 - - - -
11/01:30pm 29.4 SSE 12 20 1009.5 - 0.0 - Partly cloudy 10 - - - -
11/01:00pm 29.0 SSE 13 19 1009.7 - 0.0 - Partly cloudy 10 - - - -
11/12:30pm 28.9 SE 14 19 1010.0 - 0.0 - Partly cloudy 10 - - - -
11/12:00pm 27.8 SE 13 17 1010.5 - 0.0 Rain Mostly cloudy 10 - - - -
11/11:30am 27.9 SE 11 14 1010.8 - 0.0 - Partly cloudy 10 - - - -
11/11:00am 27.7 SSE 10 17 1011.0 - 0.0 - Partly cloudy 10 - - - -
11/10:30am 25.7 SSE 7 11 1011.3 - 0.0 - Partly cloudy 10 - - - -
11/10:00am 24.5 SE 16 23 1011.6 - 0.0 - Partly cloudy 10 - - - -
11/09:30am 26.5 SSE 12 16 1011.4 - 0.0 - Partly cloudy 10 - - - -
11/09:00am 25.9 SE 15 21 1011.4 - 0.8 - Partly cloudy 10 - - - -
11/08:30am 25.5 SSE 10 16 1011.3 - 0.8 - Partly cloudy 10 - - - -
11/08:00am 24.7 SSE 10 16 1011.3 - 0.8 - Partly cloudy 10 - - - -
11/07:30am 23.3 S 9 14 1011.0 - 0.8 - Partly cloudy 10 - - - -
11/07:00am 22.4 S 8 12 1010.9 - 0.8 - - 10 - - - -
11/06:30am 21.4 S 6 10 1010.7 - 0.8 - - 10 - - - -
11/06:00am 20.8 S 6 9 1010.3 - 0.8 - - 10 - - - -
11/05:30am 20.7 S 7 10 1010.2 - 0.8 - - 10 - - - -
11/05:00am 20.7 S 7 9 1010.0 - 0.8 - - 10 - - - -
11/04:30am 20.8 S 6 8 1009.8 - 0.8 - - 10 - - - -
11/04:00am 20.9 S 7 11 1009.7 - 0.8 - - 10 - - - -
11/03:30am 20.7 S 6 8 1009.8 - 0.8 - - 10 - - - -
11/03:00am 20.6 S 5 7 1009.8 - 0.8 - - 10 - - - -
11/02:30am 21.0 SSE 7 11 1009.8 - 0.8 - - 10 - - - -
11/02:00am 20.8 SSE 7 10 1009.8 - 0.8 - - 10 - - - -
11/01:30am 20.8 SSE 7 10 1010.0 - 0.8 - - 10 - - - -
11/01:00am 21.0 SSE 6 8 1010.3 - 0.8 - - 10 - - - -
11/12:30am 21.2 SSE 6 9 1010.6 - 0.8 - - 10 - - - -
11/12:00am 21.2 SSE 6 9 1011.0 - 0.8 - - 10 - - - -
 
Date/Time
EST
Temp

°C
Wind Pressure Rain
since 9am
mm
Weather Cloud Vis
km
Sea
Height
m
Swell
Dir
 
Speed
knots
Gust
knots
hPa Trend Height
m
Period
s
Dir
10/11:30pm 21.4 SSE 6 8 1011.4 - 0.8 - - 10 - - - -
10/11:00pm 21.6 SSE 6 8 1011.6 - 0.8 - - 10 - - - -
10/10:30pm 21.7 SSE 5 9 1011.9 - 0.8 - - 10 - - - -
10/10:00pm 22.0 SSE 6 7 1012.0 - 0.8 - - 10 - - - -
10/09:30pm 22.5 SSE 7 10 1012.0 - 0.8 - - 10 - - - -
10/09:00pm 22.8 SSE 9 11 1011.8 - 0.8 - - 10 - - - -
10/08:30pm 23.0 SE 11 13 1011.7 - 0.8 - Partly cloudy 10 - - - -
10/08:00pm 23.5 SE 10 14 1011.7 - 0.8 - Cloudy 10 - - - -
10/07:30pm 23.8 SSE 9 13 1011.6 - 0.8 - Cloudy 10 - - - -
10/07:00pm 23.6 SSE 9 12 1011.3 - 0.8 - Partly cloudy 10 - - - -
10/06:30pm 24.1 SE 12 15 1010.8 - 0.8 - Partly cloudy 10 - - - -
10/06:00pm 24.5 SE 19 25 1010.7 - 0.8 - Cloudy 10 - - - -
10/05:30pm 25.9 SE 18 25 1010.4 - 0.8 - Partly cloudy 10 - - - -
10/05:00pm 26.8 ESE 17 23 1009.9 - 0.8 - Partly cloudy 10 - - - -
10/04:30pm 27.9 ESE 17 22 1009.5 - 0.8 - Partly cloudy 10 - - - -
10/04:00pm 28.6 ESE 15 19 1009.1 - 0.8 - Partly cloudy 10 - - - -
10/03:30pm 27.5 SE 16 22 1009.1 - 0.8 - Partly cloudy 10 - - - -
10/03:00pm 27.0 ESE 10 17 1009.2 - 0.8 Rain Cloudy 10 - - - -
10/02:30pm 24.4 S 8 15 1009.9 - 0.4 - Partly cloudy 10 - - - -
10/02:05pm 26.7 SSE 12 27 1010.1 - 0.2 - Partly cloudy 10 - - - -
10/02:00pm 28.3 SE 12 18 1010.0 - 0.2 - Partly cloudy 10 - - - -
10/01:30pm 28.0 SSE 14 20 1010.5 - 0.2 - Partly cloudy 10 - - - -
10/01:00pm 28.0 SE 12 19 1010.7 - 0.2 - Partly cloudy 10 - - - -
10/12:30pm 26.1 SSE 10 15 1011.1 - 0.2 - Partly cloudy 10 - - - -
10/12:15pm 25.6 SSE 9 13 1011.3 - 0.2 - Partly cloudy 10 - - - -
10/12:04pm 23.8 SE 16 22 1011.5 - 0.2 - Partly cloudy 5 - - - -
10/12:00pm 24.1 SE 17 22 1011.6 - 0.2 Rain Cloudy 9 - - - -
10/11:30am 23.9 SSE 13 20 1011.6 - 0.2 - Partly cloudy 10 - - - -
10/11:00am 26.4 SSE 11 17 1011.5 - 0.0 - Partly cloudy 10 - - - -
10/10:30am 26.8 SE 16 22 1011.8 - 0.0 - Partly cloudy 10 - - - -
10/10:00am 26.4 SE 14 20 1011.8 - 0.0 - Partly cloudy 10 - - - -
10/09:30am 27.1 SSE 13 20 1011.5 - 0.0 - Partly cloudy 10 - - - -
10/09:00am 26.3 S 12 21 1011.7 - 0.0 - Mostly clear 10 - - - -
10/08:30am 24.5 SSE 11 15 1011.9 - 0.0 - Partly cloudy 10 - - - -
10/08:00am 24.0 S 10 14 1011.9 - 0.0 - Partly cloudy 10 - - - -
10/07:30am 22.6 S 8 12 1011.9 - 0.0 - Cloudy 10 - - - -
10/07:00am 21.9 S 8 11 1011.8 - 0.0 - Partly cloudy 10 - - - -
10/06:30am 21.1 SSW 7 10 1011.5 - 0.0 - Partly cloudy 10 - - - -
10/06:00am 20.2 SSW 7 10 1011.0 - 0.0 - Partly cloudy 10 - - - -
10/05:30am 20.0 SSW 6 10 1010.9 - 0.0 - Partly cloudy 10 - - - -
10/05:00am 20.0 S 6 8 1010.8 - 0.0 - - 10 - - - -
10/04:30am 20.0 SSW 6 8 1010.7 - 0.0 - - 10 - - - -

Other Formats:

Comma delimited format used in spreadsheet applications
http://www.bom.gov.au/fwo/IDQ60701/IDQ60701.94387.axf

JavaScript Object Notation format (JSON) in row-major order
http://www.bom.gov.au/fwo/IDQ60701/IDQ60701.94387.json